sensor_id;sensor_type;location;lat;lon;timestamp;temperature;humidity
61092;DHT22;46975;51.898;11.444;2023-01-08T00:02:00;7.90;99.90
61092;DHT22;46975;51.898;11.444;2023-01-08T00:04:26;7.90;99.90
61092;DHT22;46975;51.898;11.444;2023-01-08T00:06:51;7.80;99.90
61092;DHT22;46975;51.898;11.444;2023-01-08T00:09:17;7.70;99.90
61092;DHT22;46975;51.898;11.444;2023-01-08T00:11:43;7.70;99.90
61092;DHT22;46975;51.898;11.444;2023-01-08T00:14:09;7.60;99.90
61092;DHT22;46975;51.898;11.444;2023-01-08T00:16:35;7.60;99.90
61092;DHT22;46975;51.898;11.444;2023-01-08T00:19:00;7.60;99.90
61092;DHT22;46975;51.898;11.444;2023-01-08T00:21:27;7.50;99.90
61092;DHT22;46975;51.898;11.444;2023-01-08T00:23:52;7.40;99.90
61092;DHT22;46975;51.898;11.444;2023-01-08T00:26:18;7.40;99.90
61092;DHT22;46975;51.898;11.444;2023-01-08T00:28:44;7.40;99.90
61092;DHT22;46975;51.898;11.444;2023-01-08T00:31:11;7.40;99.90
61092;DHT22;46975;51.898;11.444;2023-01-08T00:33:37;7.40;99.90
61092;DHT22;46975;51.898;11.444;2023-01-08T00:36:12;7.40;99.90
61092;DHT22;46975;51.898;11.444;2023-01-08T00:38:38;7.30;99.90
61092;DHT22;46975;51.898;11.444;2023-01-08T00:41:04;7.30;99.90
61092;DHT22;46975;51.898;11.444;2023-01-08T00:43:30;7.30;99.90
61092;DHT22;46975;51.898;11.444;2023-01-08T00:45:56;7.30;99.90
61092;DHT22;46975;51.898;11.444;2023-01-08T00:48:21;7.20;99.90
61092;DHT22;46975;51.898;11.444;2023-01-08T00:50:48;7.10;99.90
61092;DHT22;46975;51.898;11.444;2023-01-08T00:53:14;7.10;99.90
61092;DHT22;46975;51.898;11.444;2023-01-08T00:55:40;7.30;99.90
61092;DHT22;46975;51.898;11.444;2023-01-08T00:58:06;7.50;99.90
61092;DHT22;46975;51.898;11.444;2023-01-08T01:00:31;7.50;99.90
61092;DHT22;46975;51.898;11.444;2023-01-08T01:02:57;7.40;99.90
61092;DHT22;46975;51.898;11.444;2023-01-08T01:05:22;7.30;99.90
61092;DHT22;46975;51.898;11.444;2023-01-08T01:07:48;7.10;99.90
61092;DHT22;46975;51.898;11.444;2023-01-08T01:10:15;7.10;99.90
61092;DHT22;46975;51.898;11.444;2023-01-08T01:12:42;6.90;99.90
61092;DHT22;46975;51.898;11.444;2023-01-08T01:15:11;6.90;99.90
61092;DHT22;46975;51.898;11.444;2023-01-08T01:17:38;6.80;99.90
61092;DHT22;46975;51.898;11.444;2023-01-08T01:20:06;6.80;99.90
61092;DHT22;46975;51.898;11.444;2023-01-08T01:22:32;6.80;99.90
61092;DHT22;46975;51.898;11.444;2023-01-08T01:24:58;6.70;99.90
61092;DHT22;46975;51.898;11.444;2023-01-08T01:27:24;6.70;99.90
61092;DHT22;46975;51.898;11.444;2023-01-08T01:29:50;6.70;99.90
61092;DHT22;46975;51.898;11.444;2023-01-08T01:32:16;6.60;99.90
61092;DHT22;46975;51.898;11.444;2023-01-08T01:34:42;6.50;99.90
61092;DHT22;46975;51.898;11.444;2023-01-08T01:37:10;6.50;99.90
61092;DHT22;46975;51.898;11.444;2023-01-08T01:39:36;6.50;99.90
61092;DHT22;46975;51.898;11.444;2023-01-08T01:42:01;6.40;99.90
61092;DHT22;46975;51.898;11.444;2023-01-08T01:50:01;6.20;99.90
61092;DHT22;46975;51.898;11.444;2023-01-08T01:52:30;6.20;99.90
61092;DHT22;46975;51.898;11.444;2023-01-08T01:54:59;6.10;99.90
61092;DHT22;46975;51.898;11.444;2023-01-08T01:57:27;6.10;99.90
61092;DHT22;46975;51.898;11.444;2023-01-08T01:59:53;6.40;99.90
61092;DHT22;46975;51.898;11.444;2023-01-08T02:02:19;7.20;99.90
61092;DHT22;46975;51.898;11.444;2023-01-08T02:04:45;7.80;99.90
61092;DHT22;46975;51.898;11.444;2023-01-08T02:07:16;7.90;99.90
61092;DHT22;46975;51.898;11.444;2023-01-08T02:09:52;8.00;99.90
61092;DHT22;46975;51.898;11.444;2023-01-08T02:15:26;8.10;99.90
61092;DHT22;46975;51.898;11.444;2023-01-08T02:18:19;8.10;99.90
61092;DHT22;46975;51.898;11.444;2023-01-08T02:20:55;8.00;99.90
61092;DHT22;46975;51.898;11.444;2023-01-08T02:26:26;8.20;99.90
61092;DHT22;46975;51.898;11.444;2023-01-08T02:31:24;8.60;99.90
61092;DHT22;46975;51.898;11.444;2023-01-08T02:33:51;8.60;99.90
61092;DHT22;46975;51.898;11.444;2023-01-08T02:36:31;8.70;99.90
61092;DHT22;46975;51.898;11.444;2023-01-08T02:44:25;8.50;99.90
61092;DHT22;46975;51.898;11.444;2023-01-08T02:46:57;8.30;99.90
61092;DHT22;46975;51.898;11.444;2023-01-08T02:49:28;8.20;99.90
61092;DHT22;46975;51.898;11.444;2023-01-08T02:51:56;8.20;99.90
61092;DHT22;46975;51.898;11.444;2023-01-08T02:54:27;8.20;99.90
61092;DHT22;46975;51.898;11.444;2023-01-08T02:56:59;8.20;99.90
61092;DHT22;46975;51.898;11.444;2023-01-08T02:59:28;8.20;99.90
61092;DHT22;46975;51.898;11.444;2023-01-08T03:01:56;8.20;99.90
61092;DHT22;46975;51.898;11.444;2023-01-08T03:04:23;8.30;99.90
61092;DHT22;46975;51.898;11.444;2023-01-08T03:06:49;8.30;99.90
61092;DHT22;46975;51.898;11.444;2023-01-08T03:09:16;8.20;99.90
61092;DHT22;46975;51.898;11.444;2023-01-08T03:14:31;8.40;99.90
61092;DHT22;46975;51.898;11.444;2023-01-08T03:17:32;8.40;99.90
61092;DHT22;46975;51.898;11.444;2023-01-08T03:20:06;8.70;99.90
61092;DHT22;46975;51.898;11.444;2023-01-08T03:22:35;8.90;99.90
61092;DHT22;46975;51.898;11.444;2023-01-08T03:25:03;9.20;99.90
61092;DHT22;46975;51.898;11.444;2023-01-08T03:27:31;9.40;99.90
61092;DHT22;46975;51.898;11.444;2023-01-08T03:29:58;9.50;99.90
61092;DHT22;46975;51.898;11.444;2023-01-08T03:32:26;9.40;99.90
61092;DHT22;46975;51.898;11.444;2023-01-08T03:34:55;9.40;99.90
61092;DHT22;46975;51.898;11.444;2023-01-08T03:37:26;9.50;99.90
61092;DHT22;46975;51.898;11.444;2023-01-08T03:39:58;9.50;99.90
61092;DHT22;46975;51.898;11.444;2023-01-08T03:42:25;9.50;99.90
61092;DHT22;46975;51.898;11.444;2023-01-08T03:44:52;9.40;99.90
61092;DHT22;46975;51.898;11.444;2023-01-08T03:47:19;9.40;99.90
61092;DHT22;46975;51.898;11.444;2023-01-08T03:49:48;9.30;99.90
61092;DHT22;46975;51.898;11.444;2023-01-08T03:52:29;9.40;99.90
61092;DHT22;46975;51.898;11.444;2023-01-08T03:54:56;9.60;99.90
61092;DHT22;46975;51.898;11.444;2023-01-08T03:57:22;9.70;99.90
61092;DHT22;46975;51.898;11.444;2023-01-08T03:59:48;9.80;99.90
61092;DHT22;46975;51.898;11.444;2023-01-08T04:02:14;9.90;99.90
61092;DHT22;46975;51.898;11.444;2023-01-08T04:04:40;9.80;99.90
61092;DHT22;46975;51.898;11.444;2023-01-08T04:07:06;9.70;99.90
61092;DHT22;46975;51.898;11.444;2023-01-08T04:09:32;9.80;99.90
61092;DHT22;46975;51.898;11.444;2023-01-08T04:11:57;9.60;99.90
61092;DHT22;46975;51.898;11.444;2023-01-08T04:14:24;9.60;99.90
61092;DHT22;46975;51.898;11.444;2023-01-08T04:16:50;9.60;99.90
61092;DHT22;46975;51.898;11.444;2023-01-08T04:19:15;9.60;99.90
61092;DHT22;46975;51.898;11.444;2023-01-08T04:21:41;9.50;99.90
61092;DHT22;46975;51.898;11.444;2023-01-08T04:24:07;9.40;99.90
61092;DHT22;46975;51.898;11.444;2023-01-08T04:26:32;9.40;99.90
61092;DHT22;46975;51.898;11.444;2023-01-08T04:28:58;9.30;99.90
61092;DHT22;46975;51.898;11.444;2023-01-08T04:31:26;9.30;99.90
61092;DHT22;46975;51.898;11.444;2023-01-08T04:33:51;9.10;99.90
61092;DHT22;46975;51.898;11.444;2023-01-08T04:36:17;9.10;99.90
61092;DHT22;46975;51.898;11.444;2023-01-08T04:38:42;9.10;99.90
61092;DHT22;46975;51.898;11.444;2023-01-08T04:41:08;9.10;99.90
61092;DHT22;46975;51.898;11.444;2023-01-08T04:43:34;9.10;99.90
61092;DHT22;46975;51.898;11.444;2023-01-08T04:46:00;9.10;99.90
61092;DHT22;46975;51.898;11.444;2023-01-08T04:48:27;9.10;99.90
61092;DHT22;46975;51.898;11.444;2023-01-08T04:50:53;9.10;99.90
61092;DHT22;46975;51.898;11.444;2023-01-08T04:53:19;9.10;99.90
61092;DHT22;46975;51.898;11.444;2023-01-08T04:55:44;9.20;99.90
61092;DHT22;46975;51.898;11.444;2023-01-08T04:58:11;9.20;99.90
61092;DHT22;46975;51.898;11.444;2023-01-08T05:00:38;9.20;99.90
61092;DHT22;46975;51.898;11.444;2023-01-08T05:03:04;9.20;99.90
61092;DHT22;46975;51.898;11.444;2023-01-08T05:05:30;9.20;99.90
61092;DHT22;46975;51.898;11.444;2023-01-08T05:07:55;9.20;99.90
61092;DHT22;46975;51.898;11.444;2023-01-08T05:10:21;9.20;99.90
61092;DHT22;46975;51.898;11.444;2023-01-08T05:12:46;9.30;99.90
61092;DHT22;46975;51.898;11.444;2023-01-08T05:15:12;9.20;99.90
61092;DHT22;46975;51.898;11.444;2023-01-08T05:17:38;9.20;99.90
61092;DHT22;46975;51.898;11.444;2023-01-08T05:20:03;9.10;99.90
61092;DHT22;46975;51.898;11.444;2023-01-08T05:22:29;9.10;99.90
61092;DHT22;46975;51.898;11.444;2023-01-08T05:24:55;9.20;99.90
61092;DHT22;46975;51.898;11.444;2023-01-08T05:27:20;9.10;99.90
61092;DHT22;46975;51.898;11.444;2023-01-08T05:29:46;9.10;99.90
61092;DHT22;46975;51.898;11.444;2023-01-08T05:32:16;9.10;99.90
61092;DHT22;46975;51.898;11.444;2023-01-08T05:34:43;9.10;99.90
61092;DHT22;46975;51.898;11.444;2023-01-08T05:37:08;9.10;99.90
61092;DHT22;46975;51.898;11.444;2023-01-08T05:39:35;9.20;99.90
61092;DHT22;46975;51.898;11.444;2023-01-08T05:42:01;9.20;99.90
61092;DHT22;46975;51.898;11.444;2023-01-08T05:44:26;9.20;99.90
61092;DHT22;46975;51.898;11.444;2023-01-08T05:46:52;9.20;99.90
61092;DHT22;46975;51.898;11.444;2023-01-08T05:49:18;9.20;99.90
61092;DHT22;46975;51.898;11.444;2023-01-08T05:51:46;9.10;99.90
61092;DHT22;46975;51.898;11.444;2023-01-08T05:54:12;9.10;99.90
61092;DHT22;46975;51.898;11.444;2023-01-08T05:56:38;9.10;99.90
61092;DHT22;46975;51.898;11.444;2023-01-08T05:59:03;9.00;99.90
61092;DHT22;46975;51.898;11.444;2023-01-08T06:01:29;9.00;99.90
61092;DHT22;46975;51.898;11.444;2023-01-08T06:03:55;9.10;99.90
61092;DHT22;46975;51.898;11.444;2023-01-08T06:06:21;9.10;99.90
61092;DHT22;46975;51.898;11.444;2023-01-08T06:08:46;9.00;99.90
61092;DHT22;46975;51.898;11.444;2023-01-08T06:11:12;9.00;99.90
61092;DHT22;46975;51.898;11.444;2023-01-08T06:13:41;9.00;99.90
61092;DHT22;46975;51.898;11.444;2023-01-08T06:16:07;9.00;99.90
61092;DHT22;46975;51.898;11.444;2023-01-08T06:18:33;9.00;99.90
61092;DHT22;46975;51.898;11.444;2023-01-08T06:21:00;9.00;99.90
61092;DHT22;46975;51.898;11.444;2023-01-08T06:23:26;9.00;99.90
61092;DHT22;46975;51.898;11.444;2023-01-08T06:25:53;8.90;99.90
61092;DHT22;46975;51.898;11.444;2023-01-08T06:28:19;9.00;99.90
61092;DHT22;46975;51.898;11.444;2023-01-08T06:30:44;9.00;99.90
61092;DHT22;46975;51.898;11.444;2023-01-08T06:33:10;8.90;99.90
61092;DHT22;46975;51.898;11.444;2023-01-08T06:35:36;8.90;99.90
61092;DHT22;46975;51.898;11.444;2023-01-08T06:38:01;8.90;99.90
61092;DHT22;46975;51.898;11.444;2023-01-08T06:40:27;8.90;99.90
61092;DHT22;46975;51.898;11.444;2023-01-08T06:42:54;8.80;99.90
61092;DHT22;46975;51.898;11.444;2023-01-08T06:45:20;8.70;99.90
61092;DHT22;46975;51.898;11.444;2023-01-08T06:47:45;8.80;99.90
61092;DHT22;46975;51.898;11.444;2023-01-08T06:50:11;8.80;99.90
61092;DHT22;46975;51.898;11.444;2023-01-08T06:52:37;8.70;99.90
61092;DHT22;46975;51.898;11.444;2023-01-08T06:55:04;8.70;99.90
61092;DHT22;46975;51.898;11.444;2023-01-08T06:57:30;8.80;99.90
61092;DHT22;46975;51.898;11.444;2023-01-08T06:59:56;8.70;99.90
61092;DHT22;46975;51.898;11.444;2023-01-08T07:02:21;8.70;99.90
61092;DHT22;46975;51.898;11.444;2023-01-08T07:04:47;8.70;99.90
61092;DHT22;46975;51.898;11.444;2023-01-08T07:07:14;8.80;99.90
61092;DHT22;46975;51.898;11.444;2023-01-08T07:09:42;8.90;99.90
61092;DHT22;46975;51.898;11.444;2023-01-08T07:12:12;8.90;99.90
61092;DHT22;46975;51.898;11.444;2023-01-08T07:14:38;8.90;99.90
61092;DHT22;46975;51.898;11.444;2023-01-08T07:17:04;9.00;99.90
61092;DHT22;46975;51.898;11.444;2023-01-08T07:19:29;9.00;99.90
61092;DHT22;46975;51.898;11.444;2023-01-08T07:21:55;9.00;99.90
61092;DHT22;46975;51.898;11.444;2023-01-08T07:24:21;9.20;99.90
61092;DHT22;46975;51.898;11.444;2023-01-08T07:26:47;9.40;99.90
61092;DHT22;46975;51.898;11.444;2023-01-08T07:29:12;9.40;99.90
61092;DHT22;46975;51.898;11.444;2023-01-08T07:31:38;9.40;99.90
61092;DHT22;46975;51.898;11.444;2023-01-08T07:34:03;9.40;99.90
61092;DHT22;46975;51.898;11.444;2023-01-08T07:36:29;9.40;99.90
61092;DHT22;46975;51.898;11.444;2023-01-08T07:38:54;9.40;99.90
61092;DHT22;46975;51.898;11.444;2023-01-08T07:41:20;9.40;99.90
61092;DHT22;46975;51.898;11.444;2023-01-08T07:43:46;9.40;99.90
61092;DHT22;46975;51.898;11.444;2023-01-08T07:46:12;9.40;99.90
61092;DHT22;46975;51.898;11.444;2023-01-08T07:48:38;9.30;99.90
61092;DHT22;46975;51.898;11.444;2023-01-08T07:51:05;9.30;99.90
61092;DHT22;46975;51.898;11.444;2023-01-08T07:53:32;9.40;99.90
61092;DHT22;46975;51.898;11.444;2023-01-08T07:56:02;9.30;99.90
61092;DHT22;46975;51.898;11.444;2023-01-08T07:58:29;9.30;99.90
61092;DHT22;46975;51.898;11.444;2023-01-08T08:00:55;9.20;99.90
61092;DHT22;46975;51.898;11.444;2023-01-08T08:03:21;9.20;99.90
61092;DHT22;46975;51.898;11.444;2023-01-08T08:05:47;9.10;99.90
61092;DHT22;46975;51.898;11.444;2023-01-08T08:08:12;9.10;99.90
61092;DHT22;46975;51.898;11.444;2023-01-08T08:10:40;9.10;99.90
61092;DHT22;46975;51.898;11.444;2023-01-08T08:13:06;9.00;99.90
61092;DHT22;46975;51.898;11.444;2023-01-08T08:15:33;9.00;99.90
61092;DHT22;46975;51.898;11.444;2023-01-08T08:17:59;8.90;99.90
61092;DHT22;46975;51.898;11.444;2023-01-08T08:20:25;8.90;99.90
61092;DHT22;46975;51.898;11.444;2023-01-08T08:22:51;8.90;99.90
61092;DHT22;46975;51.898;11.444;2023-01-08T08:25:17;8.90;99.90
61092;DHT22;46975;51.898;11.444;2023-01-08T08:27:43;8.80;99.90
61092;DHT22;46975;51.898;11.444;2023-01-08T08:30:10;8.80;99.90
61092;DHT22;46975;51.898;11.444;2023-01-08T08:32:36;8.90;99.90
61092;DHT22;46975;51.898;11.444;2023-01-08T08:35:03;8.80;99.90
61092;DHT22;46975;51.898;11.444;2023-01-08T08:37:29;8.80;99.90
61092;DHT22;46975;51.898;11.444;2023-01-08T08:39:54;8.80;99.90
61092;DHT22;46975;51.898;11.444;2023-01-08T08:42:20;8.80;99.90
61092;DHT22;46975;51.898;11.444;2023-01-08T08:44:46;8.90;99.90
61092;DHT22;46975;51.898;11.444;2023-01-08T08:47:11;8.90;99.90
61092;DHT22;46975;51.898;11.444;2023-01-08T08:49:37;8.90;99.90
61092;DHT22;46975;51.898;11.444;2023-01-08T08:52:03;8.90;99.90
61092;DHT22;46975;51.898;11.444;2023-01-08T08:54:29;8.90;99.90
61092;DHT22;46975;51.898;11.444;2023-01-08T08:56:54;8.90;99.90
61092;DHT22;46975;51.898;11.444;2023-01-08T08:59:20;8.90;99.90
61092;DHT22;46975;51.898;11.444;2023-01-08T09:01:46;8.90;99.90
61092;DHT22;46975;51.898;11.444;2023-01-08T09:04:11;8.90;99.90
61092;DHT22;46975;51.898;11.444;2023-01-08T09:06:37;8.90;99.90
61092;DHT22;46975;51.898;11.444;2023-01-08T09:09:02;8.90;99.90
61092;DHT22;46975;51.898;11.444;2023-01-08T09:11:28;8.90;99.90
61092;DHT22;46975;51.898;11.444;2023-01-08T09:13:54;8.90;99.90
61092;DHT22;46975;51.898;11.444;2023-01-08T09:16:19;8.90;99.90
61092;DHT22;46975;51.898;11.444;2023-01-08T09:18:45;9.00;99.90
61092;DHT22;46975;51.898;11.444;2023-01-08T09:21:11;9.00;99.90
61092;DHT22;46975;51.898;11.444;2023-01-08T09:23:37;9.00;99.90
61092;DHT22;46975;51.898;11.444;2023-01-08T09:26:04;9.10;99.90
61092;DHT22;46975;51.898;11.444;2023-01-08T09:28:30;9.10;99.90
61092;DHT22;46975;51.898;11.444;2023-01-08T09:31:00;9.10;99.90
61092;DHT22;46975;51.898;11.444;2023-01-08T09:33:26;9.10;99.90
61092;DHT22;46975;51.898;11.444;2023-01-08T09:35:51;9.20;99.90
61092;DHT22;46975;51.898;11.444;2023-01-08T09:38:17;9.20;99.90
61092;DHT22;46975;51.898;11.444;2023-01-08T09:40:50;9.20;99.90
61092;DHT22;46975;51.898;11.444;2023-01-08T09:43:25;9.20;99.90
61092;DHT22;46975;51.898;11.444;2023-01-08T09:45:56;9.20;99.90
61092;DHT22;46975;51.898;11.444;2023-01-08T09:48:28;9.30;99.90
61092;DHT22;46975;51.898;11.444;2023-01-08T09:50:54;9.30;99.90
61092;DHT22;46975;51.898;11.444;2023-01-08T09:53:20;9.40;99.90
61092;DHT22;46975;51.898;11.444;2023-01-08T09:56:00;9.40;99.90
61092;DHT22;46975;51.898;11.444;2023-01-08T09:58:40;9.40;99.90
61092;DHT22;46975;51.898;11.444;2023-01-08T10:01:12;9.40;99.90
61092;DHT22;46975;51.898;11.444;2023-01-08T10:03:50;9.40;99.90
61092;DHT22;46975;51.898;11.444;2023-01-08T10:06:17;9.40;99.90
61092;DHT22;46975;51.898;11.444;2023-01-08T10:08:43;9.40;99.90
61092;DHT22;46975;51.898;11.444;2023-01-08T10:11:10;9.40;99.90
61092;DHT22;46975;51.898;11.444;2023-01-08T10:13:39;9.40;99.90
61092;DHT22;46975;51.898;11.444;2023-01-08T10:16:07;9.40;99.90
61092;DHT22;46975;51.898;11.444;2023-01-08T10:18:33;9.50;99.90
61092;DHT22;46975;51.898;11.444;2023-01-08T10:20:59;9.50;99.90
61092;DHT22;46975;51.898;11.444;2023-01-08T10:23:25;9.50;99.90
61092;DHT22;46975;51.898;11.444;2023-01-08T10:25:59;9.60;99.90
61092;DHT22;46975;51.898;11.444;2023-01-08T10:28:32;9.60;99.90
61092;DHT22;46975;51.898;11.444;2023-01-08T10:31:14;9.60;99.90
61092;DHT22;46975;51.898;11.444;2023-01-08T10:33:46;9.60;99.90
61092;DHT22;46975;51.898;11.444;2023-01-08T10:36:16;9.60;99.90
61092;DHT22;46975;51.898;11.444;2023-01-08T10:38:58;9.60;99.90
61092;DHT22;46975;51.898;11.444;2023-01-08T10:41:25;9.50;99.90
61092;DHT22;46975;51.898;11.444;2023-01-08T10:43:58;9.50;99.90
61092;DHT22;46975;51.898;11.444;2023-01-08T10:46:26;9.50;99.90
61092;DHT22;46975;51.898;11.444;2023-01-08T10:48:55;9.40;99.90
61092;DHT22;46975;51.898;11.444;2023-01-08T10:51:23;9.40;99.90
61092;DHT22;46975;51.898;11.444;2023-01-08T10:53:49;9.40;99.90
61092;DHT22;46975;51.898;11.444;2023-01-08T10:58:46;9.40;99.90
61092;DHT22;46975;51.898;11.444;2023-01-08T11:01:21;9.40;99.90
61092;DHT22;46975;51.898;11.444;2023-01-08T11:03:52;9.40;99.90
61092;DHT22;46975;51.898;11.444;2023-01-08T11:06:22;9.40;99.90
61092;DHT22;46975;51.898;11.444;2023-01-08T11:08:52;9.40;99.90
61092;DHT22;46975;51.898;11.444;2023-01-08T11:11:18;9.40;99.90
61092;DHT22;46975;51.898;11.444;2023-01-08T11:16:19;9.40;99.90
61092;DHT22;46975;51.898;11.444;2023-01-08T11:18:49;9.40;99.90
61092;DHT22;46975;51.898;11.444;2023-01-08T11:21:33;9.40;99.90
61092;DHT22;46975;51.898;11.444;2023-01-08T11:24:20;9.30;99.90
61092;DHT22;46975;51.898;11.444;2023-01-08T11:26:53;9.30;99.90
61092;DHT22;46975;51.898;11.444;2023-01-08T11:29:29;9.30;99.90
61092;DHT22;46975;51.898;11.444;2023-01-08T11:32:17;9.30;99.90
61092;DHT22;46975;51.898;11.444;2023-01-08T11:35:10;9.30;99.90
61092;DHT22;46975;51.898;11.444;2023-01-08T11:37:40;9.30;99.90
61092;DHT22;46975;51.898;11.444;2023-01-08T11:40:16;9.40;99.90
61092;DHT22;46975;51.898;11.444;2023-01-08T11:45:35;9.40;99.90
61092;DHT22;46975;51.898;11.444;2023-01-08T11:59:29;9.50;99.90
61092;DHT22;46975;51.898;11.444;2023-01-08T12:02:38;9.50;99.90
61092;DHT22;46975;51.898;11.444;2023-01-08T12:05:31;9.50;99.90
61092;DHT22;46975;51.898;11.444;2023-01-08T12:10:42;9.50;99.90
61092;DHT22;46975;51.898;11.444;2023-01-08T12:13:16;9.50;99.90
61092;DHT22;46975;51.898;11.444;2023-01-08T12:16:10;9.50;99.90
61092;DHT22;46975;51.898;11.444;2023-01-08T12:24:31;9.50;99.90
61092;DHT22;46975;51.898;11.444;2023-01-08T12:35:10;9.60;99.90
61092;DHT22;46975;51.898;11.444;2023-01-08T12:37:50;9.60;99.90
61092;DHT22;46975;51.898;11.444;2023-01-08T12:40:34;9.60;99.90
61092;DHT22;46975;51.898;11.444;2023-01-08T12:43:05;9.60;99.90
61092;DHT22;46975;51.898;11.444;2023-01-08T12:45:41;9.60;99.90
61092;DHT22;46975;51.898;11.444;2023-01-08T12:48:14;9.70;99.90
61092;DHT22;46975;51.898;11.444;2023-01-08T12:51:09;9.70;99.90
61092;DHT22;46975;51.898;11.444;2023-01-08T12:54:12;9.70;99.90
61092;DHT22;46975;51.898;11.444;2023-01-08T13:02:14;9.80;99.90
61092;DHT22;46975;51.898;11.444;2023-01-08T13:04:45;9.70;99.90
61092;DHT22;46975;51.898;11.444;2023-01-08T13:07:22;9.70;99.90
61092;DHT22;46975;51.898;11.444;2023-01-08T13:10:04;9.80;99.90
61092;DHT22;46975;51.898;11.444;2023-01-08T13:12:41;9.90;99.90
61092;DHT22;46975;51.898;11.444;2023-01-08T13:15:21;9.90;99.90
61092;DHT22;46975;51.898;11.444;2023-01-08T13:17:48;9.90;99.90
61092;DHT22;46975;51.898;11.444;2023-01-08T13:20:26;10.00;99.90
61092;DHT22;46975;51.898;11.444;2023-01-08T13:23:01;10.00;99.90
61092;DHT22;46975;51.898;11.444;2023-01-08T13:25:35;10.00;99.90
61092;DHT22;46975;51.898;11.444;2023-01-08T13:30:54;10.10;99.90
61092;DHT22;46975;51.898;11.444;2023-01-08T13:36:20;10.10;99.90
61092;DHT22;46975;51.898;11.444;2023-01-08T13:41:34;10.00;99.90
61092;DHT22;46975;51.898;11.444;2023-01-08T13:44:37;10.00;99.90
61092;DHT22;46975;51.898;11.444;2023-01-08T13:49:52;10.00;99.90
61092;DHT22;46975;51.898;11.444;2023-01-08T13:52:42;10.00;99.90
61092;DHT22;46975;51.898;11.444;2023-01-08T13:55:20;10.00;99.90
61092;DHT22;46975;51.898;11.444;2023-01-08T13:57:52;10.00;99.90
61092;DHT22;46975;51.898;11.444;2023-01-08T14:00:44;10.00;99.90
61092;DHT22;46975;51.898;11.444;2023-01-08T14:03:21;10.00;99.90
61092;DHT22;46975;51.898;11.444;2023-01-08T14:05:47;10.10;99.90
61092;DHT22;46975;51.898;11.444;2023-01-08T14:08:25;10.10;99.90
61092;DHT22;46975;51.898;11.444;2023-01-08T14:10:54;10.10;99.90
61092;DHT22;46975;51.898;11.444;2023-01-08T14:13:21;10.20;99.90
61092;DHT22;46975;51.898;11.444;2023-01-08T14:15:48;10.20;99.90
61092;DHT22;46975;51.898;11.444;2023-01-08T14:18:14;10.30;99.90
61092;DHT22;46975;51.898;11.444;2023-01-08T14:20:41;10.30;99.90
61092;DHT22;46975;51.898;11.444;2023-01-08T14:23:16;10.30;99.90
61092;DHT22;46975;51.898;11.444;2023-01-08T14:25:47;10.40;99.90
61092;DHT22;46975;51.898;11.444;2023-01-08T14:28:16;10.40;99.90
61092;DHT22;46975;51.898;11.444;2023-01-08T14:30:51;10.40;99.90
61092;DHT22;46975;51.898;11.444;2023-01-08T14:33:19;10.40;99.90
61092;DHT22;46975;51.898;11.444;2023-01-08T14:35:47;10.30;99.90
61092;DHT22;46975;51.898;11.444;2023-01-08T14:38:16;10.20;99.90
61092;DHT22;46975;51.898;11.444;2023-01-08T14:40:44;10.10;99.90
61092;DHT22;46975;51.898;11.444;2023-01-08T14:43:14;10.00;99.90
61092;DHT22;46975;51.898;11.444;2023-01-08T14:45:48;10.00;99.90
61092;DHT22;46975;51.898;11.444;2023-01-08T14:48:35;10.00;99.90
61092;DHT22;46975;51.898;11.444;2023-01-08T14:51:10;9.90;99.90
61092;DHT22;46975;51.898;11.444;2023-01-08T14:53:46;9.90;99.90
61092;DHT22;46975;51.898;11.444;2023-01-08T14:56:15;9.80;99.90
61092;DHT22;46975;51.898;11.444;2023-01-08T14:58:42;9.70;99.90
61092;DHT22;46975;51.898;11.444;2023-01-08T15:01:23;9.60;99.90
61092;DHT22;46975;51.898;11.444;2023-01-08T15:03:50;9.60;99.90
61092;DHT22;46975;51.898;11.444;2023-01-08T15:06:27;9.60;99.90
61092;DHT22;46975;51.898;11.444;2023-01-08T15:08:52;9.60;99.90
61092;DHT22;46975;51.898;11.444;2023-01-08T15:11:22;9.60;99.90
61092;DHT22;46975;51.898;11.444;2023-01-08T15:13:49;9.40;99.90
61092;DHT22;46975;51.898;11.444;2023-01-08T15:16:37;9.40;99.90
61092;DHT22;46975;51.898;11.444;2023-01-08T15:19:16;9.30;99.90
61092;DHT22;46975;51.898;11.444;2023-01-08T15:21:50;9.30;99.90
61092;DHT22;46975;51.898;11.444;2023-01-08T15:26:56;9.20;99.90
61092;DHT22;46975;51.898;11.444;2023-01-08T15:29:30;9.20;99.90
61092;DHT22;46975;51.898;11.444;2023-01-08T15:32:21;9.10;99.90
61092;DHT22;46975;51.898;11.444;2023-01-08T15:34:47;9.10;99.90
61092;DHT22;46975;51.898;11.444;2023-01-08T15:37:14;9.10;99.90
61092;DHT22;46975;51.898;11.444;2023-01-08T15:39:40;9.10;99.90
61092;DHT22;46975;51.898;11.444;2023-01-08T15:42:29;9.10;99.90
61092;DHT22;46975;51.898;11.444;2023-01-08T15:45:20;9.10;99.90
61092;DHT22;46975;51.898;11.444;2023-01-08T15:47:46;9.10;99.90
61092;DHT22;46975;51.898;11.444;2023-01-08T15:50:13;9.00;99.90
61092;DHT22;46975;51.898;11.444;2023-01-08T15:52:40;9.00;99.90
61092;DHT22;46975;51.898;11.444;2023-01-08T15:55:09;9.00;99.90
61092;DHT22;46975;51.898;11.444;2023-01-08T15:57:39;9.00;99.90
61092;DHT22;46975;51.898;11.444;2023-01-08T16:00:07;9.10;99.90
61092;DHT22;46975;51.898;11.444;2023-01-08T16:02:40;9.00;99.90
61092;DHT22;46975;51.898;11.444;2023-01-08T16:05:06;9.00;99.90
61092;DHT22;46975;51.898;11.444;2023-01-08T16:07:31;9.00;99.90
61092;DHT22;46975;51.898;11.444;2023-01-08T16:09:57;9.00;99.90
61092;DHT22;46975;51.898;11.444;2023-01-08T16:12:22;9.00;99.90
61092;DHT22;46975;51.898;11.444;2023-01-08T16:14:48;9.00;99.90
61092;DHT22;46975;51.898;11.444;2023-01-08T16:17:14;9.00;99.90
61092;DHT22;46975;51.898;11.444;2023-01-08T16:19:39;9.10;99.90
61092;DHT22;46975;51.898;11.444;2023-01-08T16:22:06;9.10;99.90
61092;DHT22;46975;51.898;11.444;2023-01-08T16:24:32;9.10;99.90
61092;DHT22;46975;51.898;11.444;2023-01-08T16:26:58;9.10;99.90
61092;DHT22;46975;51.898;11.444;2023-01-08T16:29:25;9.00;99.90
61092;DHT22;46975;51.898;11.444;2023-01-08T16:31:52;9.00;99.90
61092;DHT22;46975;51.898;11.444;2023-01-08T16:34:19;9.00;99.90
61092;DHT22;46975;51.898;11.444;2023-01-08T16:36:44;9.00;99.90
61092;DHT22;46975;51.898;11.444;2023-01-08T16:39:10;8.90;99.90
61092;DHT22;46975;51.898;11.444;2023-01-08T16:41:35;8.90;99.90
61092;DHT22;46975;51.898;11.444;2023-01-08T16:44:03;8.90;99.90
61092;DHT22;46975;51.898;11.444;2023-01-08T16:46:29;8.90;99.90
61092;DHT22;46975;51.898;11.444;2023-01-08T16:48:54;8.80;99.90
61092;DHT22;46975;51.898;11.444;2023-01-08T16:51:20;8.80;99.90
61092;DHT22;46975;51.898;11.444;2023-01-08T16:53:47;8.70;99.90
61092;DHT22;46975;51.898;11.444;2023-01-08T16:56:12;8.70;99.90
61092;DHT22;46975;51.898;11.444;2023-01-08T16:58:38;8.70;99.90
61092;DHT22;46975;51.898;11.444;2023-01-08T17:01:08;8.70;99.90